Time;durP1;ratioP1;P1;durP2;ratioP2;P2;SDS_P1;SDS_P2;PMS_P1;PMS_P2;Temp;Humidity;BMP_temperature;BMP_pressure;BME280_temperature;BME280_humidity;BME280_pressure;Samples;Min_cycle;Max_cycle;Signal;HPM_P1;HPM_P2
2022/01/26 00:00:54;;;;;;;85.10;37.33;;;-0.40;99.90;;;;;;5050327;28;20028;-80
2022/01/26 00:06:06;;;;;;;92.00;38.60;;;-0.50;99.90;;;;;;5050283;28;20109;-80
2022/01/26 00:08:33;;;;;;;88.77;37.20;;;-0.60;99.90;;;;;;5049782;28;20025;-81
2022/01/26 00:10:59;;;;;;;82.17;35.20;;;-0.60;99.90;;;;;;5049801;28;20033;-80
2022/01/26 00:13:25;;;;;;;91.73;37.73;;;-0.60;99.90;;;;;;5048548;28;20435;-80
2022/01/26 00:15:50;;;;;;;86.27;37.03;;;-0.60;99.90;;;;;;5049787;28;20036;-80
2022/01/26 00:18:19;;;;;;;88.80;37.10;;;-0.60;99.90;;;;;;5049778;28;20029;-80
2022/01/26 00:20:55;;;;;;;96.47;37.60;;;-0.60;99.90;;;;;;5049868;28;20517;-79
2022/01/26 00:23:48;;;;;;;89.57;36.90;;;-0.60;99.90;;;;;;5049509;28;20052;-80
2022/01/26 00:26:22;;;;;;;77.38;33.72;;;-0.60;99.90;;;;;;5049960;28;20037;-80
2022/01/26 00:39:53;;;;;;;75.30;33.90;;;-0.70;99.90;;;;;;5056873;28;20076;-73
2022/01/26 00:42:18;;;;;;;70.03;32.67;;;-0.70;99.90;;;;;;5057068;28;20046;-73
2022/01/26 00:44:47;;;;;;;74.63;34.20;;;-0.70;99.90;;;;;;5056314;28;20080;-73
2022/01/26 00:47:14;;;;;;;82.83;34.97;;;-0.80;99.90;;;;;;5056857;28;20029;-73
2022/01/26 00:49:40;;;;;;;80.37;35.50;;;-0.80;99.90;;;;;;5056570;28;20445;-73
2022/01/26 00:52:11;;;;;;;81.90;36.70;;;-0.80;99.90;;;;;;5056653;28;20037;-73
2022/01/26 00:54:36;;;;;;;81.13;35.63;;;-0.70;99.90;;;;;;5056642;28;20028;-73
2022/01/26 00:57:03;;;;;;;80.20;33.80;;;-0.80;99.90;;;;;;5056512;28;20048;-73
2022/01/26 00:59:28;;;;;;;72.40;32.80;;;-0.80;99.90;;;;;;5056554;28;20025;-73
2022/01/26 01:01:55;;;;;;;77.93;33.60;;;-0.70;99.90;;;;;;5056170;28;20104;-73
2022/01/26 01:04:21;;;;;;;82.50;34.20;;;-0.80;99.90;;;;;;5056485;28;20032;-73
2022/01/26 01:06:53;;;;;;;82.27;35.20;;;-0.80;99.90;;;;;;5056291;28;20553;-73
2022/01/26 01:09:21;;;;;;;88.40;38.40;;;-0.80;99.90;;;;;;5055110;28;20420;-73
2022/01/26 01:11:46;;;;;;;82.70;35.67;;;-0.80;99.90;;;;;;5054704;28;20025;-73
2022/01/26 01:14:12;;;;;;;83.83;35.90;;;-0.90;99.90;;;;;;5056075;28;20028;-73
2022/01/26 01:16:38;;;;;;;80.27;34.80;;;-0.90;99.90;;;;;;5056288;28;20439;-73
2022/01/26 01:19:27;;;;;;;85.60;36.17;;;-0.90;99.90;;;;;;5055997;28;20021;-73
2022/01/26 01:29:58;;;;;;;87.17;35.90;;;-1.00;99.90;;;;;;5055736;28;20055;-73
2022/01/26 01:32:34;;;;;;;85.40;37.07;;;-1.00;99.90;;;;;;5055965;28;20039;-73
2022/01/26 01:35:00;;;;;;;93.37;38.40;;;-1.10;99.90;;;;;;5055886;28;20028;-73
2022/01/26 01:37:26;;;;;;;111.10;37.33;;;-1.10;99.90;;;;;;5055604;28;20025;-73
2022/01/26 01:39:52;;;;;;;131.90;36.53;;;-1.10;99.90;;;;;;5055000;28;20361;-73
2022/01/26 01:42:17;;;;;;;115.40;37.07;;;-1.10;99.90;;;;;;5054257;28;20028;-73
2022/01/26 01:44:43;;;;;;;86.87;33.13;;;-1.10;99.90;;;;;;5054251;28;20052;-73
2022/01/26 01:47:09;;;;;;;87.13;35.67;;;-1.10;99.90;;;;;;5055617;28;20367;-73
2022/01/26 01:49:36;;;;;;;102.40;33.53;;;-1.10;99.90;;;;;;5055342;28;20028;-73
2022/01/26 01:52:04;;;;;;;77.50;32.77;;;-1.10;99.90;;;;;;5055509;28;20100;-73
2022/01/26 01:54:31;;;;;;;125.20;33.60;;;-1.10;99.90;;;;;;5055568;28;20393;-73
2022/01/26 01:56:58;;;;;;;156.67;33.63;;;-1.20;99.90;;;;;;5055264;28;20483;-77
2022/01/26 01:59:31;;;;;;;69.63;31.67;;;-1.20;99.90;;;;;;5055081;28;20033;-77
2022/01/26 02:01:58;;;;;;;89.50;30.60;;;-1.20;99.90;;;;;;5053849;28;20116;-76
2022/01/26 02:04:24;;;;;;;71.67;30.97;;;-1.20;99.90;;;;;;5055046;28;20055;-76
2022/01/26 02:06:49;;;;;;;115.13;32.13;;;-1.30;99.90;;;;;;5053687;28;20025;-76
2022/01/26 02:09:16;;;;;;;75.87;31.77;;;-1.30;99.90;;;;;;5054997;28;20355;-76
2022/01/26 02:11:49;;;;;;;89.80;31.10;;;-1.40;99.90;;;;;;5055036;28;20478;-76
2022/01/26 02:14:25;;;;;;;118.33;31.33;;;-1.30;99.90;;;;;;5055222;28;20021;-76
2022/01/26 02:17:06;;;;;;;;;;;-1.40;99.90;;;;;;5055508;28;20056;-77
2022/01/26 02:49:45;;;;;;;95.83;26.40;;;-1.60;99.90;;;;;;5053867;28;20531;-76
2022/01/26 02:57:31;;;;;;;56.90;26.93;;;-1.70;99.90;;;;;;5054363;28;20259;-76
2022/01/26 03:05:26;;;;;;;81.60;28.87;;;-1.70;99.90;;;;;;5054048;28;20036;-76
2022/01/26 03:07:57;;;;;;;145.10;28.47;;;-1.70;99.90;;;;;;5052503;28;20033;-76
2022/01/26 03:10:33;;;;;;;92.03;26.93;;;-1.70;99.90;;;;;;5053973;28;20416;-77
2022/01/26 03:13:10;;;;;;;90.40;25.63;;;-1.70;99.90;;;;;;5054253;28;20067;-77
2022/01/26 03:15:42;;;;;;;60.47;23.87;;;-1.80;99.90;;;;;;5054345;28;20100;-77
2022/01/26 03:18:32;;;;;;;70.93;27.47;;;-1.80;99.90;;;;;;5053653;28;20454;-76
2022/01/26 03:21:01;;;;;;;62.57;24.20;;;-1.80;99.90;;;;;;5053884;28;20089;-77
2022/01/26 03:34:11;;;;;;;55.67;22.65;;;-1.80;99.90;;;;;;5053628;28;20052;-76
2022/01/26 03:39:17;;;;;;;43.43;21.53;;;-1.70;99.90;;;;;;5054077;28;20028;-76
2022/01/26 03:41:47;;;;;;;49.27;22.73;;;-1.70;99.90;;;;;;5053487;28;20474;-76
2022/01/26 03:44:14;;;;;;;49.80;24.00;;;-1.80;99.90;;;;;;5053087;28;20041;-76
2022/01/26 03:46:40;;;;;;;107.23;27.17;;;-1.80;99.90;;;;;;5053278;28;20025;-76
2022/01/26 03:49:07;;;;;;;81.00;26.00;;;-1.80;99.90;;;;;;5052893;28;20083;-76
2022/01/26 03:51:33;;;;;;;69.47;25.73;;;-1.80;99.90;;;;;;5053300;28;20036;-76
2022/01/26 03:54:00;;;;;;;52.33;25.27;;;-1.90;99.90;;;;;;5053200;28;20347;-76
2022/01/26 03:56:25;;;;;;;111.63;27.67;;;-1.90;99.90;;;;;;5051607;28;20017;-76
2022/01/26 03:58:51;;;;;;;115.93;29.30;;;-1.90;99.90;;;;;;5053021;28;20025;-77
2022/01/26 04:01:17;;;;;;;126.50;29.27;;;-1.90;99.90;;;;;;5052616;28;20025;-77
2022/01/26 04:03:43;;;;;;;90.40;26.70;;;-1.90;99.90;;;;;;5053482;28;20063;-76
2022/01/26 04:06:08;;;;;;;91.53;29.00;;;-1.90;99.90;;;;;;5052869;28;20021;-76
2022/01/26 04:08:36;;;;;;;70.87;27.47;;;-1.90;99.90;;;;;;5052810;28;20025;-76
2022/01/26 04:13:46;;;;;;;141.23;27.80;;;-2.00;99.90;;;;;;5052709;28;20033;-76
2022/01/26 04:16:12;;;;;;;67.40;25.27;;;-2.00;99.90;;;;;;5053256;28;20362;-76
2022/01/26 04:18:39;;;;;;;65.73;23.90;;;-2.00;99.90;;;;;;5052812;28;20481;-76
2022/01/26 04:21:17;;;;;;;126.53;25.90;;;-1.90;99.90;;;;;;5052670;28;20025;-76
2022/01/26 04:26:21;;;;;;;113.20;27.15;;;-2.00;99.90;;;;;;5053070;28;20488;-77
2022/01/26 04:28:56;;;;;;;82.23;26.70;;;-2.00;99.90;;;;;;5052689;28;20025;-77
2022/01/26 04:31:22;;;;;;;67.60;25.67;;;-2.00;99.90;;;;;;5052646;28;20021;-77
2022/01/26 04:33:48;;;;;;;69.57;25.20;;;-2.00;99.90;;;;;;5052810;28;20332;-77
2022/01/26 04:36:20;;;;;;;97.70;29.03;;;-2.00;99.90;;;;;;5052543;28;20022;-77
2022/01/26 04:38:51;;;;;;;56.60;25.57;;;-2.10;99.90;;;;;;5052899;28;20104;-77
2022/01/26 04:41:38;;;;;;;56.40;26.27;;;-2.10;99.90;;;;;;5052774;28;20021;-76
2022/01/26 04:44:19;;;;;;;93.80;28.67;;;-2.10;99.90;;;;;;5052300;28;20148;-77
2022/01/26 04:46:45;;;;;;;68.40;26.30;;;-2.10;99.90;;;;;;5052482;28;20025;-76
2022/01/26 04:49:11;;;;;;;57.53;28.07;;;-2.10;99.90;;;;;;5052934;28;20017;-76
2022/01/26 04:51:36;;;;;;;66.60;27.27;;;-2.10;99.90;;;;;;5052380;28;20077;-76
2022/01/26 04:54:02;;;;;;;63.73;26.27;;;-2.10;99.90;;;;;;5052400;28;20029;-76
2022/01/26 04:56:27;;;;;;;61.07;26.67;;;-2.10;99.90;;;;;;5052528;28;20025;-76
2022/01/26 04:58:53;;;;;;;136.70;27.03;;;-2.20;99.90;;;;;;5052305;28;20063;-77
2022/01/26 05:01:19;;;;;;;72.20;23.80;;;-2.20;99.90;;;;;;5050898;28;20085;-77
2022/01/26 05:03:45;;;;;;;59.80;26.97;;;-2.20;99.90;;;;;;5052340;28;20025;-77
2022/01/26 05:06:11;;;;;;;60.07;26.27;;;-2.20;99.90;;;;;;5050898;28;20029;-77
2022/01/26 05:08:36;;;;;;;56.60;26.33;;;-2.20;99.90;;;;;;5052598;28;20070;-77
2022/01/26 05:11:03;;;;;;;65.67;25.93;;;-2.20;99.90;;;;;;5052629;28;20450;-76
2022/01/26 05:13:29;;;;;;;52.97;24.37;;;-2.20;99.90;;;;;;5054494;28;20397;-76
2022/01/26 05:15:54;;;;;;;62.73;26.90;;;-2.20;99.90;;;;;;5055956;28;20080;-76
2022/01/26 05:18:20;;;;;;;69.03;24.83;;;-2.30;99.90;;;;;;5055808;28;20036;-76
2022/01/26 05:20:46;;;;;;;49.60;24.80;;;-2.30;99.90;;;;;;5055948;28;20066;-76
2022/01/26 05:23:12;;;;;;;60.83;26.90;;;-2.30;99.90;;;;;;5055978;28;20067;-76
2022/01/26 05:25:37;;;;;;;59.90;27.13;;;-2.30;99.90;;;;;;5056112;28;20102;-76
2022/01/26 05:28:03;;;;;;;55.27;25.33;;;-2.30;99.90;;;;;;5055893;28;20037;-76
2022/01/26 05:30:29;;;;;;;53.63;26.27;;;-2.30;99.90;;;;;;5048658;28;20041;-76
2022/01/26 05:32:54;;;;;;;58.23;27.70;;;-2.30;99.90;;;;;;5050690;28;20017;-76
2022/01/26 05:35:20;;;;;;;62.37;26.67;;;-2.30;99.90;;;;;;5054202;28;20036;-76
2022/01/26 05:37:46;;;;;;;50.03;24.07;;;-2.30;99.90;;;;;;5048257;28;20042;-76
2022/01/26 05:40:12;;;;;;;52.67;25.43;;;-2.30;99.90;;;;;;5049887;28;20639;-76
2022/01/26 05:42:38;;;;;;;49.07;24.13;;;-2.30;99.90;;;;;;5053412;28;20020;-76
2022/01/26 05:45:07;;;;;;;46.67;23.47;;;-2.30;99.90;;;;;;5050246;28;20673;-76
2022/01/26 05:47:34;;;;;;;47.50;24.00;;;-2.30;99.90;;;;;;5046572;28;20025;-76
2022/01/26 05:50:00;;;;;;;44.20;23.20;;;-2.30;99.90;;;;;;5050783;28;20021;-76
2022/01/26 05:52:26;;;;;;;43.87;22.10;;;-2.30;99.90;;;;;;5046028;28;20048;-76
2022/01/26 05:54:52;;;;;;;47.47;22.23;;;-2.30;99.90;;;;;;5054024;28;20425;-76
2022/01/26 05:57:18;;;;;;;41.40;19.83;;;-2.40;99.90;;;;;;5049195;28;20054;-76
2022/01/26 05:59:44;;;;;;;37.80;20.30;;;-2.40;99.90;;;;;;5052382;28;20021;-76
2022/01/26 06:02:10;;;;;;;39.33;18.97;;;-2.50;99.90;;;;;;5051628;28;20020;-76
2022/01/26 06:04:35;;;;;;;34.50;18.63;;;-2.50;99.90;;;;;;5046982;28;20021;-76
2022/01/26 06:07:01;;;;;;;40.47;19.53;;;-2.50;99.90;;;;;;5044147;28;20029;-77
2022/01/26 06:09:26;;;;;;;36.13;20.17;;;-2.60;99.90;;;;;;5050060;28;20059;-76
2022/01/26 06:11:52;;;;;;;36.00;18.23;;;-2.60;99.90;;;;;;5051344;28;20450;-76
2022/01/26 06:14:18;;;;;;;37.67;20.03;;;-2.70;99.90;;;;;;5042372;28;20470;-77
2022/01/26 06:16:43;;;;;;;39.27;20.07;;;-2.70;99.90;;;;;;5037647;28;20018;-76
2022/01/26 06:19:09;;;;;;;38.47;19.43;;;-2.70;99.90;;;;;;5046051;28;20025;-76
2022/01/26 06:21:35;;;;;;;40.53;20.37;;;-2.80;99.90;;;;;;5037647;28;20024;-76
2022/01/26 06:24:00;;;;;;;37.30;19.87;;;-2.80;99.90;;;;;;5030258;28;20101;-76
2022/01/26 06:26:26;;;;;;;39.57;21.03;;;-2.80;99.90;;;;;;5049648;28;20535;-77
2022/01/26 06:28:51;;;;;;;38.70;20.77;;;-2.90;99.90;;;;;;5051411;28;20033;-76
2022/01/26 06:31:18;;;;;;;40.27;20.03;;;-2.90;99.90;;;;;;5035232;28;20416;-72
2022/01/26 06:33:46;;;;;;;43.90;21.27;;;-2.90;99.90;;;;;;5049390;28;20017;-73
2022/01/26 06:36:13;;;;;;;38.57;19.77;;;-2.90;99.90;;;;;;5047236;28;20373;-73
2022/01/26 06:38:41;;;;;;;37.10;18.67;;;-2.90;99.90;;;;;;5054605;28;20049;-71
2022/01/26 06:41:07;;;;;;;40.97;19.77;;;-2.90;99.90;;;;;;5052662;28;20074;-75
2022/01/26 06:43:33;;;;;;;36.23;19.43;;;-3.00;99.90;;;;;;5055455;28;20377;-74
2022/01/26 06:46:03;;;;;;;36.07;18.80;;;-3.00;99.90;;;;;;5054550;28;20086;-75
2022/01/26 06:48:46;;;;;;;38.77;19.80;;;-3.00;99.90;;;;;;5054459;28;20107;-75
2022/01/26 06:51:12;;;;;;;36.87;19.10;;;-3.00;99.90;;;;;;5054542;28;20436;-75
2022/01/26 06:53:39;;;;;;;36.03;18.60;;;-3.00;99.90;;;;;;5054261;28;20021;-75
2022/01/26 06:56:04;;;;;;;34.43;18.17;;;-3.10;99.90;;;;;;5054340;28;20025;-75
2022/01/26 06:58:30;;;;;;;40.13;20.30;;;-3.10;99.90;;;;;;5052915;28;20036;-75
2022/01/26 07:00:57;;;;;;;37.07;18.37;;;-3.10;99.90;;;;;;5054786;28;20033;-74
2022/01/26 07:03:26;;;;;;;38.23;19.33;;;-3.10;99.90;;;;;;5053647;28;20028;-74
2022/01/26 07:05:51;;;;;;;33.33;18.37;;;-3.10;99.90;;;;;;5052679;28;20406;-74
2022/01/26 07:08:17;;;;;;;38.33;19.93;;;-3.10;99.90;;;;;;5052548;28;20029;-74
2022/01/26 07:10:47;;;;;;;39.00;20.23;;;-3.10;99.90;;;;;;5053957;28;20025;-74
2022/01/26 07:13:12;;;;;;;37.47;18.37;;;-3.10;99.90;;;;;;5053749;28;20029;-74
2022/01/26 07:23:41;;;;;;;33.85;18.35;;;-3.10;99.90;;;;;;5043285;28;20495;-76
2022/01/26 07:26:06;;;;;;;32.00;18.63;;;-3.10;99.90;;;;;;5042798;28;20056;-80
2022/01/26 07:28:36;;;;;;;37.87;19.60;;;-3.10;99.90;;;;;;5036877;28;20037;-77
2022/01/26 07:31:03;;;;;;;36.57;19.77;;;-3.10;99.90;;;;;;5045923;28;20493;-76
2022/01/26 07:33:30;;;;;;;32.23;18.53;;;-3.00;99.90;;;;;;5044262;28;20496;-75
2022/01/26 07:35:55;;;;;;;37.30;20.10;;;-3.00;99.90;;;;;;5044257;28;20021;-76
2022/01/26 07:38:21;;;;;;;36.60;19.57;;;-3.00;99.90;;;;;;5046113;28;21110;-77
2022/01/26 07:40:47;;;;;;;35.07;19.70;;;-3.00;99.90;;;;;;5043287;28;20048;-78
2022/01/26 07:43:12;;;;;;;38.17;19.57;;;-3.00;99.90;;;;;;5045952;28;20028;-77
2022/01/26 07:45:38;;;;;;;36.27;19.33;;;-2.90;99.90;;;;;;5045254;28;20052;-76
2022/01/26 07:48:04;;;;;;;36.13;19.30;;;-2.90;99.90;;;;;;5051049;28;20032;-73
2022/01/26 07:50:29;;;;;;;34.43;19.63;;;-2.90;99.90;;;;;;5053064;28;20021;-74
2022/01/26 07:52:55;;;;;;;41.50;21.67;;;-2.80;99.90;;;;;;5053191;28;20024;-74
2022/01/26 07:55:22;;;;;;;40.73;20.60;;;-2.70;99.90;;;;;;5053005;28;20020;-73
2022/01/26 07:57:50;;;;;;;39.70;20.43;;;-2.70;99.90;;;;;;5053279;28;20020;-74
2022/01/26 08:00:18;;;;;;;34.37;18.13;;;-2.60;99.90;;;;;;5052913;28;20468;-74
2022/01/26 08:02:45;;;;;;;34.50;17.90;;;-2.60;99.90;;;;;;5049107;28;20044;-74
2022/01/26 08:05:12;;;;;;;37.03;19.60;;;-2.60;99.90;;;;;;5045542;28;20032;-77
2022/01/26 08:07:38;;;;;;;37.17;20.13;;;-2.50;99.90;;;;;;5048467;28;20078;-78
2022/01/26 08:10:06;;;;;;;32.20;17.83;;;-2.50;99.90;;;;;;5052942;28;20100;-74
2022/01/26 08:12:32;;;;;;;31.37;18.27;;;-2.50;99.90;;;;;;5052475;28;20020;-75
2022/01/26 08:14:58;;;;;;;33.37;18.07;;;-2.30;99.90;;;;;;5053473;28;20314;-75
2022/01/26 08:17:23;;;;;;;31.70;18.40;;;-2.20;99.90;;;;;;5052945;28;20353;-74
2022/01/26 08:19:52;;;;;;;30.63;17.83;;;-2.20;99.90;;;;;;5051578;28;20476;-75
2022/01/26 08:22:19;;;;;;;30.80;18.60;;;-2.10;99.90;;;;;;5053034;28;20021;-75
2022/01/26 08:24:46;;;;;;;34.27;19.20;;;-2.00;99.90;;;;;;5051380;28;20031;-74
2022/01/26 08:27:14;;;;;;;30.97;18.40;;;-1.90;99.90;;;;;;5052918;28;20029;-75
2022/01/26 08:29:43;;;;;;;31.27;18.40;;;-1.80;99.90;;;;;;5052804;28;20078;-75
2022/01/26 08:32:09;;;;;;;30.43;17.40;;;-1.80;99.90;;;;;;5052625;28;20017;-74
2022/01/26 08:34:35;;;;;;;29.90;18.43;;;-1.70;99.90;;;;;;5052869;28;20453;-74
2022/01/26 08:37:01;;;;;;;29.30;18.37;;;-1.70;99.90;;;;;;5052654;28;20025;-74
2022/01/26 08:39:27;;;;;;;31.10;18.13;;;-1.50;99.90;;;;;;5048304;28;20013;-76
2022/01/26 08:41:52;;;;;;;37.33;20.37;;;-1.50;99.90;;;;;;5047583;28;20028;-76
2022/01/26 08:44:19;;;;;;;30.27;18.57;;;-1.50;99.90;;;;;;5046948;28;20131;-76
2022/01/26 08:46:45;;;;;;;34.50;19.87;;;-1.30;99.90;;;;;;5043096;28;20032;-76
2022/01/26 08:49:11;;;;;;;32.10;18.97;;;-1.30;99.90;;;;;;5050981;28;20029;-76
2022/01/26 08:51:37;;;;;;;34.87;19.63;;;-1.30;99.90;;;;;;5050300;28;20504;-76
2022/01/26 08:54:03;;;;;;;32.83;18.43;;;-1.20;99.90;;;;;;5051212;28;20499;-77
2022/01/26 08:56:29;;;;;;;33.23;19.43;;;-1.10;99.90;;;;;;5052152;28;20120;-76
2022/01/26 08:58:55;;;;;;;32.70;19.60;;;-0.50;99.90;;;;;;5051211;28;20463;-76
2022/01/26 09:01:20;;;;;;;39.20;21.73;;;-0.40;99.90;;;;;;5050166;28;20045;-76
2022/01/26 09:03:46;;;;;;;36.50;20.63;;;-0.50;99.90;;;;;;5049126;28;20048;-76
2022/01/26 09:06:12;;;;;;;39.40;21.07;;;-0.60;99.90;;;;;;5050198;28;20067;-76
2022/01/26 09:08:40;;;;;;;38.43;21.63;;;-0.40;99.90;;;;;;5048742;28;20060;-76
2022/01/26 09:11:06;;;;;;;41.13;23.27;;;-0.20;99.90;;;;;;5046050;28;20447;-76
2022/01/26 09:13:34;;;;;;;37.30;21.10;;;-0.20;99.90;;;;;;5050853;28;20029;-77
2022/01/26 09:16:03;;;;;;;40.00;21.63;;;-0.30;99.90;;;;;;5051166;28;20025;-76
2022/01/26 09:18:39;;;;;;;39.07;21.40;;;-0.50;99.90;;;;;;5049589;28;20037;-76
2022/01/26 09:21:06;;;;;;;35.93;20.17;;;-0.50;99.90;;;;;;5051351;28;20036;-76
2022/01/26 09:23:32;;;;;;;35.87;21.10;;;-0.60;99.90;;;;;;5050887;28;20028;-76
2022/01/26 09:25:58;;;;;;;38.47;21.73;;;-0.70;99.90;;;;;;5051432;28;20071;-77
2022/01/26 09:28:24;;;;;;;37.37;21.70;;;-0.70;99.90;;;;;;5048158;28;20461;-76
2022/01/26 09:30:51;;;;;;;35.83;21.13;;;-0.70;99.90;;;;;;5041197;28;20025;-76
2022/01/26 09:33:16;;;;;;;39.50;22.13;;;-0.60;99.90;;;;;;5051147;28;20432;-77
2022/01/26 09:35:42;;;;;;;34.87;20.53;;;-0.60;99.90;;;;;;5051470;28;20041;-76
2022/01/26 09:38:08;;;;;;;35.53;20.97;;;-0.60;99.90;;;;;;5051678;28;20025;-77
2022/01/26 09:40:33;;;;;;;34.70;20.43;;;-0.60;99.90;;;;;;5052185;28;20120;-73
2022/01/26 09:43:00;;;;;;;34.43;20.07;;;-0.60;99.90;;;;;;5054054;28;20028;-73
2022/01/26 09:45:25;;;;;;;34.97;20.00;;;-0.50;99.90;;;;;;5055212;28;20068;-72
2022/01/26 09:47:51;;;;;;;35.93;20.20;;;-0.50;99.90;;;;;;5055413;28;20503;-72
2022/01/26 09:50:17;;;;;;;33.80;19.93;;;-0.50;99.90;;;;;;5052028;28;20028;-77
2022/01/26 09:52:47;;;;;;;29.47;19.70;;;-0.40;99.90;;;;;;5049280;28;20036;-77
2022/01/26 09:55:14;;;;;;;37.10;19.80;;;-0.40;99.90;;;;;;5050243;28;20036;-77
2022/01/26 09:57:41;;;;;;;29.97;18.67;;;-0.20;99.90;;;;;;5047316;28;20423;-74
2022/01/26 10:00:08;;;;;;;29.70;18.83;;;-0.10;99.90;;;;;;5054467;28;20461;-74
2022/01/26 10:02:35;;;;;;;34.87;21.27;;;-0.10;99.90;;;;;;5055185;28;20033;-73
2022/01/26 10:05:09;;;;;;;32.03;19.30;;;0.00;99.90;;;;;;5055434;28;20029;-74
2022/01/26 10:15:27;;;;;;;29.27;18.20;;;0.10;99.90;;;;;;5055109;28;20382;-74
2022/01/26 10:16:37;;;;;;;31.07;19.00;;;0.10;99.90;;;;;;5055582;28;19931;-72
2022/01/26 10:18:58;;;;;;;34.03;20.02;;;0.10;99.90;;;;;;5054850;28;20063;-71
2022/01/26 10:21:24;;;;;;;33.60;20.43;;;0.30;99.90;;;;;;5044173;28;20041;-76
2022/01/26 10:23:52;;;;;;;28.60;18.37;;;0.60;99.90;;;;;;5028529;28;20453;-76
2022/01/26 10:26:19;;;;;;;29.47;18.13;;;0.90;99.90;;;;;;5028826;28;20036;-76
2022/01/26 10:28:58;;;;;;;31.70;18.90;;;1.30;99.90;;;;;;5028731;28;20033;-76
2022/01/26 10:31:30;;;;;;;31.00;19.50;;;1.30;99.90;;;;;;5029965;28;20038;-77
2022/01/26 10:34:04;;;;;;;31.73;19.80;;;1.30;99.90;;;;;;5047867;28;20025;-76
2022/01/26 10:36:48;;;;;;;29.90;19.20;;;1.40;99.90;;;;;;5041873;28;20033;-76
2022/01/26 10:39:35;;;;;;;30.93;19.23;;;1.30;99.90;;;;;;5031180;28;20099;-77
2022/01/26 10:42:07;;;;;;;29.87;19.47;;;1.20;99.90;;;;;;5028822;28;20017;-77
2022/01/26 10:44:47;;;;;;;28.33;17.33;;;1.30;99.90;;;;;;5028112;28;20053;-77
2022/01/26 10:47:15;;;;;;;27.53;17.17;;;1.50;99.90;;;;;;5042556;28;20037;-77
2022/01/26 10:52:35;;;;;;;26.60;17.57;;;1.50;99.90;;;;;;5048115;28;20055;-77
2022/01/26 10:55:02;;;;;;;31.70;18.70;;;1.40;99.90;;;;;;5049236;28;20021;-77
2022/01/26 10:57:28;;;;;;;32.80;19.27;;;1.40;99.90;;;;;;5048299;28;20758;-77
2022/01/26 10:59:54;;;;;;;27.67;18.10;;;1.50;99.90;;;;;;5048158;28;20078;-76
2022/01/26 11:02:33;;;;;;;34.43;19.80;;;1.50;99.90;;;;;;5046971;28;20040;-76
2022/01/26 11:04:59;;;;;;;33.97;20.63;;;1.60;99.90;;;;;;5041123;28;20025;-77
2022/01/26 11:07:42;;;;;;;30.33;19.40;;;1.70;99.90;;;;;;5046399;28;20060;-77
2022/01/26 11:10:09;;;;;;;33.87;19.67;;;1.70;99.90;;;;;;5049806;28;20021;-76
2022/01/26 11:12:38;;;;;;;33.60;20.87;;;1.80;99.90;;;;;;5049990;28;20016;-76
2022/01/26 11:15:12;;;;;;;33.97;20.47;;;1.90;99.90;;;;;;5045932;28;20416;-77
2022/01/26 11:17:44;;;;;;;36.37;22.27;;;2.00;99.90;;;;;;5043915;28;20036;-76
2022/01/26 11:20:34;;;;;;;34.10;20.73;;;2.20;99.90;;;;;;5034356;28;20030;-77
2022/01/26 11:23:04;;;;;;;38.97;21.60;;;2.30;99.90;;;;;;5035037;28;20453;-77
2022/01/26 11:25:43;;;;;;;38.27;21.40;;;2.40;99.90;;;;;;5050314;28;20036;-77
2022/01/26 11:28:22;;;;;;;37.23;21.40;;;2.50;99.90;;;;;;5050587;28;20025;-77
2022/01/26 11:30:49;;;;;;;34.17;21.37;;;2.80;99.90;;;;;;5030537;28;20033;-77
2022/01/26 11:33:19;;;;;;;33.43;20.07;;;2.90;99.90;;;;;;5048763;28;20367;-77
2022/01/26 11:35:48;;;;;;;31.17;20.03;;;3.20;99.90;;;;;;5048775;28;20029;-77
2022/01/26 11:38:40;;;;;;;31.03;19.47;;;3.20;99.90;;;;;;5050243;28;20486;-76
2022/01/26 11:47:30;;;;;;;32.37;20.57;;;3.50;99.90;;;;;;5047009;28;20106;-78
2022/01/26 11:50:30;;;;;;;34.40;20.87;;;3.60;99.90;;;;;;5042173;28;20474;-76
2022/01/26 11:53:11;;;;;;;34.17;20.80;;;3.80;99.90;;;;;;5047343;28;20136;-76
2022/01/26 11:55:42;;;;;;;35.10;22.37;;;3.90;99.90;;;;;;5039976;28;20037;-77
2022/01/26 11:58:14;;;;;;;34.50;22.17;;;3.80;99.90;;;;;;5046321;28;20047;-77
2022/01/26 12:00:55;;;;;;;34.00;21.63;;;3.80;99.90;;;;;;5047019;28;20578;-77
2022/01/26 12:03:27;;;;;;;37.80;23.13;;;4.10;99.90;;;;;;5046767;28;20032;-77
2022/01/26 12:05:56;;;;;;;33.90;22.20;;;4.00;99.90;;;;;;5046867;28;20029;-77
2022/01/26 12:08:29;;;;;;;36.90;23.07;;;3.90;99.90;;;;;;5047160;28;20112;-77
2022/01/26 12:10:55;;;;;;;39.77;24.07;;;3.90;99.90;;;;;;5048203;28;20029;-77
2022/01/26 12:13:25;;;;;;;39.93;24.10;;;4.10;99.90;;;;;;5049253;28;20086;-77
2022/01/26 12:15:55;;;;;;;39.13;24.40;;;4.20;99.90;;;;;;5054409;28;20111;-77
2022/01/26 12:34:50;;;;;;;41.03;24.00;;;5.20;99.90;;;;;;5048928;28;20112;-76
2022/01/26 12:37:37;;;;;;;37.80;23.27;;;5.00;99.90;;;;;;5051735;28;20053;-72
2022/01/26 12:45:17;;;;;;;45.70;26.73;;;4.50;99.90;;;;;;5044370;28;20049;-71
2022/01/26 12:47:43;;;;;;;41.03;24.97;;;4.40;99.90;;;;;;5031195;28;20386;-71
2022/01/26 12:50:09;;;;;;;47.07;26.47;;;4.80;99.90;;;;;;5050620;28;20032;-71
2022/01/26 12:52:35;;;;;;;43.13;27.03;;;4.60;99.90;;;;;;5050802;28;20025;-71
2022/01/26 12:55:02;;;;;;;42.97;27.43;;;4.50;99.90;;;;;;5051684;28;20025;-72
2022/01/26 12:57:28;;;;;;;42.13;26.73;;;4.60;99.90;;;;;;5051929;28;20480;-72
2022/01/26 13:00:01;;;;;;;44.07;26.47;;;4.60;99.90;;;;;;5051986;28;20021;-72
2022/01/26 13:02:27;;;;;;;39.00;24.43;;;4.70;99.90;;;;;;5052057;28;20091;-71
2022/01/26 13:05:00;;;;;;;43.33;26.27;;;4.90;99.90;;;;;;5052215;28;20462;-72
2022/01/26 13:07:26;;;;;;;35.60;24.07;;;4.80;99.90;;;;;;5051759;28;20031;-71
2022/01/26 13:09:52;;;;;;;42.83;24.77;;;4.70;99.90;;;;;;5051858;28;20021;-72
2022/01/26 13:12:30;;;;;;;39.50;25.00;;;4.80;99.90;;;;;;5051791;28;20516;-72
2022/01/26 13:15:11;;;;;;;40.80;24.67;;;4.70;99.90;;;;;;5051756;28;20026;-71
2022/01/26 13:17:43;;;;;;;38.47;24.60;;;4.70;99.90;;;;;;5051833;28;20021;-72
2022/01/26 13:28:30;;;;;;;37.90;23.60;;;4.50;99.90;;;;;;5051898;28;20052;-71
2022/01/26 13:36:41;;;;;;;36.93;22.07;;;5.10;99.90;;;;;;5055234;28;19911;-72
2022/01/26 13:54:10;;;;;;;43.60;24.87;;;5.00;99.90;;;;;;5054963;28;20025;-72
2022/01/26 13:56:41;;;;;;;37.60;23.27;;;4.90;99.90;;;;;;5054466;28;20083;-72
2022/01/26 13:59:22;;;;;;;36.37;24.23;;;5.00;99.90;;;;;;5054779;28;20056;-72
2022/01/26 14:01:49;;;;;;;39.70;24.27;;;4.80;99.90;;;;;;5063302;28;20111;-78
2022/01/26 14:04:16;;;;;;;37.63;24.37;;;4.70;99.90;;;;;;5052233;28;20533;-76
2022/01/26 14:06:43;;;;;;;42.83;24.67;;;4.80;99.90;;;;;;5047864;28;20025;-76
2022/01/26 14:09:09;;;;;;;40.00;25.03;;;4.80;99.90;;;;;;5060071;28;20020;-76
2022/01/26 14:11:35;;;;;;;39.47;25.60;;;4.90;99.90;;;;;;5057620;28;20024;-75
2022/01/26 14:14:01;;;;;;;39.70;24.77;;;5.00;99.90;;;;;;5061470;28;20040;-76
2022/01/26 14:16:32;;;;;;;43.00;25.73;;;4.70;99.90;;;;;;5068540;28;20406;-75
2022/01/26 14:19:14;;;;;;;40.00;24.43;;;4.60;99.90;;;;;;5050176;28;20037;-75
2022/01/26 14:24:29;;;;;;;42.23;25.37;;;4.50;99.90;;;;;;5057227;28;20030;-76
2022/01/26 14:26:58;;;;;;;39.53;25.73;;;4.40;99.90;;;;;;5054697;28;20033;-71
2022/01/26 14:35:02;;;;;;;40.30;25.17;;;4.30;99.90;;;;;;5054135;28;20457;-72
2022/01/26 14:40:41;;;;;;;41.07;25.37;;;4.50;99.90;;;;;;5034251;28;20089;-71
2022/01/26 14:51:37;;;;;;;40.73;23.67;;;4.50;99.90;;;;;;5053357;28;20079;-76
2022/01/26 14:54:18;;;;;;;42.60;25.40;;;4.30;99.90;;;;;;5046694;28;20095;-75
2022/01/26 15:35:08;;;;;;;53.67;33.43;;;3.50;99.90;;;;;;5063674;28;20108;-74
2022/01/26 16:06:18;;;;;;;56.10;29.23;;;1.80;99.90;;;;;;5032392;28;20056;-75
2022/01/26 16:12:39;;;;;;;49.87;28.93;;;1.70;99.90;;;;;;5050254;28;20064;-74
2022/01/26 16:35:56;;;;;;;51.30;28.50;;;0.60;99.90;;;;;;5032816;28;20029;-75
2022/01/26 16:38:35;;;;;;;52.25;28.20;;;0.70;99.90;;;;;;5051594;28;20056;-75
2022/01/26 18:15:52;;;;;;;70.83;34.07;;;0.10;99.90;;;;;;5055016;28;20035;-80
2022/01/26 18:26:42;;;;;;;67.40;33.67;;;0.10;99.90;;;;;;5055684;28;20500;-80
2022/01/26 18:32:16;;;;;;;69.07;35.20;;;0.10;99.90;;;;;;5058535;28;20028;-81
2022/01/26 18:50:55;;;;;;;71.30;35.73;;;0.20;99.90;;;;;;5038446;28;20313;-82
2022/01/26 18:53:21;;;;;;;76.07;39.00;;;0.20;99.90;;;;;;5058918;28;20393;-83
2022/01/26 18:55:47;;;;;;;68.23;34.80;;;0.20;99.90;;;;;;5054187;28;20052;-83
2022/01/26 18:58:12;;;;;;;80.27;37.50;;;0.20;99.90;;;;;;5052662;28;20021;-83
2022/01/26 19:00:38;;;;;;;74.83;37.13;;;0.20;99.90;;;;;;5046993;28;20029;-82
2022/01/26 19:03:04;;;;;;;70.50;35.37;;;0.20;99.90;;;;;;5041169;28;20477;-83
2022/01/26 19:05:30;;;;;;;78.20;37.30;;;0.20;99.90;;;;;;5043575;28;20033;-83
2022/01/26 19:07:57;;;;;;;73.27;36.90;;;0.20;99.90;;;;;;5038002;28;20029;-82